Grand Strand Airport
KCRE : now visible

Airfield :











YOU CAN JOIN US ON...

 
LOGIN :

Register | Disclaimer

   EN    FR    IT 

 









Legend :    VFR   Marginal VFR   IFR   Intensive IFR   Very Intensive IFR
Visi :
Ceiling :
>= 8 km
>= 3000ft
5 to 8 km
1000 to 3000 ft
1500m to 5 km
500 to 1000 ft
800 to 1500m
200 to 500 ft
< 800m
< 200 ft
Symbols :   Thunderstorms  Fog  Heavy snow  Heavy precipitations  Wind > 20 kt






- Airport Elevation : 32 ft


KCRE - Grand Strand

CURRENT METAR :
  • 130553Z AUTO 00000KT 10SM SCT070 27/25 A2998 RMK AO1 LTG DSNT E SLP152 T02670250 10289 20267 56007

EXPIRED METARs :
  • 130453Z AUTO 25004KT 10SM CLR 27/25 A2998 RMK AO1 LTG DSNT E SLP154 T02670250 403060239
  • 130353Z AUTO 26005KT 10SM CLR 27/25 A2999 RMK AO1 LTG DSNT E SLP155 T02720250

TAF KCRE
Valid from the 13 at 06:00 until the 14 at 06:00 UTC


130529Z 1306/1406 25004KT P6SM VCSH SCT050 BKN110
FM131000 23004KT P6SM VCTS SCT090CB
FM131700 18008KT P6SM VCTS BKN050CB BKN090
FM140400 19004KT P6SM VCSH SCT080
KZJX FIR / North America



MET'MAP, your aeronautical weather chart ! - Copyright ORBIFLY December 2007 - Disclaimer

ORBIFLY MET'MAP TEAM :

Programming & Development : Alexandra Zaïnal
Concept & original design : Baudouin d'Aumeries
Assistance for programming : Marc-Olivier Méhu
Technical & hardware support : Manuel Goepfert

Contact : metmap@orbifly.com




SOURCES & CREDITS :

   NOAA       Earth
Advisory